Time;durP1;ratioP1;P1;durP2;ratioP2;P2;SDS_P1;SDS_P2;PMS_P1;PMS_P2;Temp;Humidity;BMP_temperature;BMP_pressure;BME280_temperature;BME280_humidity;BME280_pressure;Samples;Min_cycle;Max_cycle;Signal;HPM_P1;HPM_P2
2022/03/24 00:01:56;;;;;;;35.50;24.57;;;7.80;99.90;;;;;;5036445;28;20234;-64
2022/03/24 00:04:23;;;;;;;38.80;25.23;;;7.80;99.90;;;;;;5037321;28;20167;-64
2022/03/24 00:06:48;;;;;;;35.40;23.53;;;7.80;99.90;;;;;;5038035;28;20190;-64
2022/03/24 00:09:14;;;;;;;36.73;24.70;;;7.80;99.90;;;;;;5035721;28;20171;-64
2022/03/24 00:11:40;;;;;;;38.57;25.17;;;7.80;99.90;;;;;;5055350;28;20209;-65
2022/03/24 00:14:07;;;;;;;38.47;24.77;;;7.90;99.90;;;;;;5054561;28;20171;-65
2022/03/24 00:16:33;;;;;;;35.97;24.47;;;7.80;99.90;;;;;;5056654;28;20203;-64
2022/03/24 00:18:59;;;;;;;36.03;25.50;;;7.90;99.90;;;;;;5051348;28;20238;-65
2022/03/24 00:21:26;;;;;;;37.77;23.97;;;7.80;99.90;;;;;;5034565;28;20191;-65
2022/03/24 00:23:52;;;;;;;39.00;25.20;;;7.80;99.90;;;;;;5037784;28;20263;-65
2022/03/24 00:26:18;;;;;;;39.60;24.83;;;7.80;99.90;;;;;;5048740;28;20621;-65
2022/03/24 00:28:44;;;;;;;38.80;25.30;;;7.80;99.90;;;;;;5035211;28;20540;-64
2022/03/24 00:31:10;;;;;;;45.97;26.63;;;7.80;99.90;;;;;;5053774;28;20171;-66
2022/03/24 00:33:38;;;;;;;42.07;25.43;;;7.70;99.90;;;;;;5038185;28;20198;-64
2022/03/24 00:36:04;;;;;;;37.17;23.70;;;7.60;99.90;;;;;;5031099;28;20709;-64
2022/03/24 00:38:30;;;;;;;42.67;25.63;;;7.60;99.90;;;;;;5061282;28;20185;-65
2022/03/24 00:40:56;;;;;;;38.70;24.57;;;7.60;99.90;;;;;;5051518;28;20179;-64
2022/03/24 00:43:22;;;;;;;41.07;25.77;;;7.60;99.90;;;;;;5050834;28;20191;-65
2022/03/24 00:45:52;;;;;;;42.17;26.90;;;7.60;99.90;;;;;;5050695;28;20171;-64
2022/03/24 00:48:18;;;;;;;37.53;24.20;;;7.60;99.90;;;;;;5050860;28;20653;-65
2022/03/24 00:50:47;;;;;;;40.23;25.57;;;7.50;99.90;;;;;;5050921;28;20171;-64
2022/03/24 00:53:13;;;;;;;36.13;24.03;;;7.40;99.90;;;;;;5049780;28;20199;-64
2022/03/24 00:55:40;;;;;;;37.37;22.43;;;7.30;99.90;;;;;;5051687;28;20205;-64
2022/03/24 00:58:06;;;;;;;40.43;25.03;;;7.30;99.90;;;;;;5030520;28;20178;-65
2022/03/24 01:00:32;;;;;;;35.67;23.80;;;7.30;99.90;;;;;;5031887;28;20191;-65
2022/03/24 01:02:58;;;;;;;43.93;24.83;;;7.30;99.90;;;;;;5049031;28;20210;-64
2022/03/24 01:05:27;;;;;;;37.27;24.43;;;7.30;99.90;;;;;;5051752;28;20228;-64
2022/03/24 01:07:54;;;;;;;37.87;24.30;;;7.30;99.90;;;;;;5034969;28;20175;-64
2022/03/24 01:10:21;;;;;;;40.70;25.20;;;7.20;99.90;;;;;;5032062;28;20182;-65
2022/03/24 01:12:48;;;;;;;36.50;23.53;;;7.10;99.90;;;;;;5046395;28;20206;-65
2022/03/24 01:15:16;;;;;;;39.30;25.57;;;7.10;99.90;;;;;;5038486;28;20199;-64
2022/03/24 01:17:42;;;;;;;37.00;24.77;;;7.10;99.90;;;;;;5031398;28;20168;-64
2022/03/24 01:20:09;;;;;;;46.03;27.23;;;7.00;99.90;;;;;;5042816;28;20337;-64
2022/03/24 01:22:36;;;;;;;38.57;26.10;;;7.00;99.90;;;;;;5051480;28;20293;-64
2022/03/24 01:25:03;;;;;;;40.87;26.03;;;7.00;99.90;;;;;;5041181;28;20191;-64
2022/03/24 01:27:29;;;;;;;40.87;24.23;;;6.90;99.90;;;;;;5031888;28;20655;-65
2022/03/24 01:29:56;;;;;;;42.43;26.47;;;6.90;99.90;;;;;;5055580;28;20654;-64
2022/03/24 01:32:23;;;;;;;39.70;27.67;;;7.00;99.90;;;;;;5051707;28;20206;-63
2022/03/24 01:34:50;;;;;;;41.17;27.17;;;6.90;99.90;;;;;;5047342;28;20194;-64
2022/03/24 01:37:17;;;;;;;42.70;26.97;;;6.90;99.90;;;;;;5046911;28;20187;-64
2022/03/24 01:39:42;;;;;;;49.57;27.13;;;6.90;99.90;;;;;;5032056;28;20720;-65
2022/03/24 01:42:08;;;;;;;39.23;26.17;;;6.80;99.90;;;;;;5031726;28;20191;-65
2022/03/24 01:44:34;;;;;;;43.80;27.57;;;6.80;99.90;;;;;;5050606;28;20609;-65
2022/03/24 01:47:11;;;;;;;44.13;27.20;;;6.70;99.90;;;;;;5056919;28;20296;-65
2022/03/24 01:49:40;;;;;;;41.70;25.37;;;6.70;99.90;;;;;;5052121;28;20658;-63
2022/03/24 01:52:10;;;;;;;42.03;25.30;;;6.70;99.90;;;;;;5054004;28;20221;-63
2022/03/24 01:54:39;;;;;;;40.33;25.77;;;6.70;99.90;;;;;;5053073;28;20385;-64
2022/03/24 01:57:07;;;;;;;43.13;25.27;;;6.70;99.90;;;;;;5035617;28;20642;-64
2022/03/24 01:59:36;;;;;;;50.17;28.60;;;6.70;99.90;;;;;;5036180;28;20200;-64
2022/03/24 02:02:06;;;;;;;45.80;26.13;;;6.70;99.90;;;;;;5034468;28;20211;-64
2022/03/24 02:04:35;;;;;;;39.43;26.20;;;6.70;99.90;;;;;;5041160;28;20182;-64
2022/03/24 02:07:07;;;;;;;38.30;25.53;;;6.60;99.90;;;;;;5055223;28;20599;-64
2022/03/24 02:09:37;;;;;;;38.40;25.40;;;6.50;99.90;;;;;;5047299;28;20371;-64
2022/03/24 02:12:04;;;;;;;43.27;25.27;;;6.20;99.90;;;;;;5047647;28;20194;-64
2022/03/24 02:14:30;;;;;;;37.70;25.60;;;6.00;99.90;;;;;;5047925;28;20181;-64
2022/03/24 02:16:56;;;;;;;39.27;25.77;;;5.90;99.90;;;;;;5034901;28;20565;-63
2022/03/24 02:19:24;;;;;;;42.37;26.73;;;5.80;99.90;;;;;;5039487;28;20258;-64
2022/03/24 02:21:52;;;;;;;40.60;26.87;;;5.80;99.90;;;;;;5054338;28;20198;-64
2022/03/24 02:24:19;;;;;;;42.43;27.80;;;5.70;99.90;;;;;;5050726;28;20673;-64
2022/03/24 02:26:46;;;;;;;46.23;27.33;;;5.50;99.90;;;;;;5034164;28;20183;-64
2022/03/24 02:29:13;;;;;;;40.90;27.03;;;5.50;99.90;;;;;;5035695;28;20171;-64
2022/03/24 02:31:44;;;;;;;47.03;28.40;;;5.30;99.90;;;;;;5034565;28;20203;-64
2022/03/24 02:37:01;;;;;;;45.20;26.80;;;5.10;99.90;;;;;;5034878;28;20206;-64
2022/03/24 02:39:28;;;;;;;44.10;27.00;;;5.10;99.90;;;;;;5034376;28;20191;-65
2022/03/24 02:41:55;;;;;;;46.70;30.33;;;5.00;99.90;;;;;;5034214;28;20261;-64
2022/03/24 02:44:23;;;;;;;40.83;24.23;;;5.00;99.90;;;;;;5054065;28;20593;-64
2022/03/24 02:46:51;;;;;;;44.10;28.03;;;4.90;99.90;;;;;;5044710;28;20689;-64
2022/03/24 02:49:19;;;;;;;43.27;26.53;;;4.80;99.90;;;;;;5034464;28;20254;-64
2022/03/24 02:51:45;;;;;;;40.50;27.90;;;4.80;99.90;;;;;;5034902;28;20278;-64
2022/03/24 02:54:12;;;;;;;45.13;27.53;;;4.80;99.90;;;;;;5033488;28;20222;-64
2022/03/24 02:56:38;;;;;;;41.13;29.13;;;4.80;99.90;;;;;;5034720;28;20264;-64
2022/03/24 02:59:06;;;;;;;40.70;29.60;;;4.80;99.90;;;;;;5034020;28;20175;-64
2022/03/24 03:01:33;;;;;;;46.40;28.07;;;4.70;99.90;;;;;;5034465;28;20214;-63
2022/03/24 03:03:59;;;;;;;45.70;28.10;;;4.70;99.90;;;;;;5032732;28;20183;-64
2022/03/24 03:06:25;;;;;;;43.03;27.10;;;4.60;99.90;;;;;;5037687;28;20186;-64
2022/03/24 03:08:50;;;;;;;41.80;26.27;;;4.60;99.90;;;;;;5053697;28;20213;-64
2022/03/24 03:11:17;;;;;;;45.60;27.13;;;4.60;99.90;;;;;;5052078;28;20537;-64
2022/03/24 03:13:45;;;;;;;46.63;27.53;;;4.60;99.90;;;;;;5054482;28;20233;-70
2022/03/24 03:16:12;;;;;;;39.87;27.90;;;4.50;99.90;;;;;;5055286;28;20244;-67
2022/03/24 03:18:37;;;;;;;45.03;28.87;;;4.50;99.90;;;;;;5056580;28;20231;-67
2022/03/24 03:21:03;;;;;;;45.70;27.50;;;4.60;99.90;;;;;;5054412;28;20572;-68
2022/03/24 03:23:29;;;;;;;40.47;28.50;;;4.60;99.90;;;;;;5055974;28;20597;-68
2022/03/24 03:25:56;;;;;;;51.10;27.33;;;4.60;99.90;;;;;;5045338;28;20183;-67
2022/03/24 03:28:22;;;;;;;42.40;28.40;;;4.60;99.90;;;;;;5035455;28;20592;-67
2022/03/24 03:30:47;;;;;;;49.77;29.43;;;4.50;99.90;;;;;;5042624;28;20261;-66
2022/03/24 03:33:13;;;;;;;47.43;28.63;;;4.50;99.90;;;;;;5055024;28;20693;-68
2022/03/24 03:35:39;;;;;;;40.03;28.37;;;4.40;99.90;;;;;;5047864;28;20207;-64
2022/03/24 03:38:04;;;;;;;45.93;29.17;;;4.40;99.90;;;;;;5033113;28;20172;-64
2022/03/24 03:40:30;;;;;;;50.20;29.57;;;4.40;99.90;;;;;;5034062;28;20551;-64
2022/03/24 03:42:56;;;;;;;44.33;26.90;;;4.40;99.90;;;;;;5032708;28;20322;-64
2022/03/24 03:45:22;;;;;;;45.37;28.43;;;4.30;99.90;;;;;;5034841;28;20254;-63
2022/03/24 03:47:47;;;;;;;50.30;29.73;;;4.30;99.90;;;;;;5052482;28;20264;-64
2022/03/24 03:50:13;;;;;;;39.50;26.37;;;4.30;99.90;;;;;;5050885;28;20179;-64
2022/03/24 03:52:39;;;;;;;44.30;27.50;;;4.30;99.90;;;;;;5051732;28;20226;-64
2022/03/24 03:55:05;;;;;;;49.10;30.73;;;4.20;99.90;;;;;;5041485;28;20187;-64
2022/03/24 03:57:31;;;;;;;46.30;29.63;;;4.20;99.90;;;;;;5044390;28;20662;-64
2022/03/24 04:00:52;;;;;;;46.87;28.07;;;4.20;99.90;;;;;;5043356;28;20184;-64
2022/03/24 04:05:13;;;;;;;43.73;28.40;;;4.20;99.90;;;;;;5049999;28;20620;-68
2022/03/24 04:07:38;;;;;;;45.73;29.90;;;4.10;99.90;;;;;;5052763;28;20543;-67
2022/03/24 04:10:04;;;;;;;46.33;29.17;;;4.10;99.90;;;;;;5044154;28;20230;-70
2022/03/24 04:12:31;;;;;;;45.47;30.27;;;4.10;99.90;;;;;;5033587;28;20195;-67
2022/03/24 04:14:56;;;;;;;46.40;28.73;;;4.10;99.90;;;;;;5032537;28;20511;-70
2022/03/24 04:17:22;;;;;;;44.20;29.17;;;4.00;99.90;;;;;;5033721;28;20191;-69
2022/03/24 04:19:47;;;;;;;48.13;30.70;;;4.00;99.90;;;;;;5034642;28;20317;-68
2022/03/24 04:22:13;;;;;;;45.90;28.13;;;4.00;99.90;;;;;;5033150;28;20195;-66
2022/03/24 04:24:39;;;;;;;39.47;27.77;;;3.90;99.90;;;;;;5047803;28;20220;-68
2022/03/24 04:27:06;;;;;;;46.77;29.60;;;3.90;99.90;;;;;;5053347;28;20170;-67
2022/03/24 04:29:31;;;;;;;46.10;28.37;;;3.90;99.90;;;;;;5039665;28;20190;-67
2022/03/24 04:31:57;;;;;;;46.47;29.10;;;3.90;99.90;;;;;;5051952;28;20562;-70
2022/03/24 04:34:23;;;;;;;46.30;29.67;;;3.80;99.90;;;;;;5035328;28;20187;-65
2022/03/24 04:36:48;;;;;;;52.33;30.17;;;3.70;99.90;;;;;;5032680;28;20203;-65
2022/03/24 04:39:15;;;;;;;45.77;31.63;;;3.70;99.90;;;;;;5049753;28;20738;-65
2022/03/24 04:41:41;;;;;;;82.90;55.80;;;3.60;99.90;;;;;;5053137;28;20183;-67
2022/03/24 04:44:07;;;;;;;47.10;31.83;;;3.60;99.90;;;;;;5029976;28;20218;-67
2022/03/24 04:46:33;;;;;;;44.97;31.20;;;3.60;99.90;;;;;;5032686;28;20191;-67
2022/03/24 04:48:58;;;;;;;47.43;32.77;;;3.60;99.90;;;;;;5045897;28;20630;-69
2022/03/24 04:51:24;;;;;;;52.97;31.00;;;3.60;99.90;;;;;;5044428;28;20172;-68
2022/03/24 04:53:49;;;;;;;44.23;31.20;;;3.50;99.90;;;;;;5032004;28;20627;-67
2022/03/24 04:56:16;;;;;;;50.97;32.13;;;3.50;99.90;;;;;;5037706;28;20746;-63
2022/03/24 04:58:42;;;;;;;52.23;32.07;;;3.50;99.90;;;;;;5051659;28;20225;-63
2022/03/24 05:01:07;;;;;;;46.87;32.67;;;3.50;99.90;;;;;;5050051;28;20184;-64
2022/03/24 05:03:33;;;;;;;50.90;31.53;;;3.40;99.90;;;;;;5046684;28;20202;-63
2022/03/24 05:05:59;;;;;;;50.57;31.17;;;3.40;99.90;;;;;;5047980;28;20626;-62
2022/03/24 05:08:24;;;;;;;52.27;33.27;;;3.40;99.90;;;;;;5031484;28;20211;-64
2022/03/24 05:10:50;;;;;;;50.47;33.13;;;3.40;99.90;;;;;;5032451;28;20183;-66
2022/03/24 05:13:15;;;;;;;49.17;35.63;;;3.30;99.90;;;;;;5051617;28;20194;-63
2022/03/24 05:15:41;;;;;;;41.23;31.13;;;3.30;99.90;;;;;;5050998;28;20624;-63
2022/03/24 05:18:08;;;;;;;52.07;31.87;;;3.30;99.90;;;;;;5032479;28;20171;-64
2022/03/24 05:20:34;;;;;;;47.33;33.67;;;3.20;99.90;;;;;;5032389;28;20175;-64
2022/03/24 05:22:59;;;;;;;57.50;35.93;;;3.20;99.90;;;;;;5031422;28;20194;-62
2022/03/24 05:25:26;;;;;;;48.93;34.10;;;3.20;99.90;;;;;;5038873;28;20649;-64
2022/03/24 05:27:51;;;;;;;48.90;36.63;;;3.20;99.90;;;;;;5055465;28;20182;-64
2022/03/24 05:30:17;;;;;;;48.70;30.43;;;3.10;99.90;;;;;;5053896;28;20174;-63
2022/03/24 05:32:42;;;;;;;50.43;30.23;;;3.20;99.90;;;;;;5055620;28;20197;-64
2022/03/24 05:35:09;;;;;;;53.70;31.67;;;3.10;99.90;;;;;;5049473;28;20175;-64
2022/03/24 05:37:35;;;;;;;45.47;31.83;;;3.10;99.90;;;;;;5035389;28;20554;-64
2022/03/24 05:40:01;;;;;;;47.53;30.80;;;3.10;99.90;;;;;;5038608;28;20171;-65
2022/03/24 05:42:27;;;;;;;47.27;30.40;;;3.10;99.90;;;;;;5055238;28;20265;-64
2022/03/24 05:44:53;;;;;;;50.17;31.20;;;3.10;99.90;;;;;;5052645;28;20408;-64
2022/03/24 05:47:18;;;;;;;48.43;30.53;;;3.20;99.90;;;;;;5035440;28;20163;-65
2022/03/24 05:49:44;;;;;;;52.40;30.23;;;3.20;99.90;;;;;;5046376;28;20175;-64
2022/03/24 05:52:11;;;;;;;49.60;29.90;;;3.30;99.90;;;;;;5054693;28;20198;-64
2022/03/24 05:54:37;;;;;;;47.30;29.57;;;3.30;99.90;;;;;;5044650;28;20183;-64
2022/03/24 05:57:03;;;;;;;45.17;30.40;;;3.30;99.90;;;;;;5034924;28;20568;-64
2022/03/24 05:59:29;;;;;;;49.17;31.70;;;3.40;99.90;;;;;;5043213;28;20179;-64
2022/03/24 06:01:56;;;;;;;44.87;28.43;;;3.50;99.90;;;;;;5054736;28;20202;-65
2022/03/24 06:04:23;;;;;;;44.03;30.00;;;3.50;99.90;;;;;;5047579;28;20226;-64
2022/03/24 06:06:55;;;;;;;49.13;28.17;;;3.60;99.90;;;;;;5034640;28;20172;-64
2022/03/24 06:09:21;;;;;;;38.40;27.27;;;3.70;99.90;;;;;;5040936;28;20175;-65
2022/03/24 06:11:47;;;;;;;49.60;32.00;;;3.80;99.90;;;;;;5054699;28;20190;-63
2022/03/24 06:14:13;;;;;;;48.33;29.10;;;3.90;99.90;;;;;;5049923;28;20172;-64
2022/03/24 06:16:40;;;;;;;43.77;28.47;;;4.00;99.90;;;;;;5034323;28;20207;-65
2022/03/24 06:19:07;;;;;;;48.47;29.57;;;4.10;99.90;;;;;;5035785;28;20202;-65
2022/03/24 06:21:33;;;;;;;43.93;27.93;;;4.10;99.90;;;;;;5034510;28;20172;-63
2022/03/24 06:23:58;;;;;;;48.83;28.53;;;4.30;99.90;;;;;;5047145;28;20703;-65
2022/03/24 06:26:24;;;;;;;42.63;28.87;;;4.40;99.90;;;;;;5054140;28;20323;-65
2022/03/24 06:28:52;;;;;;;41.50;29.00;;;4.50;99.90;;;;;;5052861;28;20266;-64
2022/03/24 06:31:18;;;;;;;44.00;27.43;;;4.60;99.90;;;;;;5053926;28;20175;-65
2022/03/24 06:33:44;;;;;;;43.53;28.73;;;4.70;99.90;;;;;;5035382;28;20175;-65
2022/03/24 06:36:10;;;;;;;46.93;28.27;;;4.80;99.90;;;;;;5033993;28;20195;-63
2022/03/24 06:38:36;;;;;;;43.07;28.73;;;4.90;99.90;;;;;;5034169;28;20172;-63
2022/03/24 06:41:04;;;;;;;47.43;28.37;;;5.10;99.90;;;;;;5034308;28;20247;-65
2022/03/24 06:43:30;;;;;;;42.93;28.33;;;5.20;99.90;;;;;;5029164;28;20286;-64
2022/03/24 06:45:57;;;;;;;45.40;27.23;;;5.30;99.90;;;;;;5040392;28;20278;-64
2022/03/24 06:48:23;;;;;;;41.83;26.57;;;5.40;99.90;;;;;;5040645;28;20175;-64
2022/03/24 06:50:49;;;;;;;42.67;26.50;;;5.50;99.90;;;;;;5042164;28;20186;-64
2022/03/24 06:53:15;;;;;;;40.17;25.77;;;5.70;99.90;;;;;;5037397;28;20207;-65
2022/03/24 06:55:41;;;;;;;41.47;25.73;;;6.00;99.90;;;;;;5040678;28;20618;-65
2022/03/24 06:58:07;;;;;;;35.53;23.80;;;6.50;99.90;;;;;;5041620;28;20174;-65
2022/03/24 07:00:32;;;;;;;40.20;24.50;;;7.10;99.90;;;;;;5041370;28;20401;-64
2022/03/24 07:02:58;;;;;;;34.40;23.63;;;7.70;99.90;;;;;;5050285;28;20278;-65
2022/03/24 07:05:24;;;;;;;34.67;21.60;;;8.30;99.90;;;;;;5044967;28;20266;-64
2022/03/24 07:07:50;;;;;;;29.97;22.27;;;8.80;99.90;;;;;;5039625;28;20183;-64
2022/03/24 07:10:17;;;;;;;36.80;23.03;;;9.30;99.90;;;;;;5035687;28;20190;-65
2022/03/24 07:12:43;;;;;;;30.47;22.07;;;9.70;99.90;;;;;;5041709;28;20202;-62
2022/03/24 07:15:10;;;;;;;29.17;22.03;;;10.20;99.90;;;;;;5033454;28;20187;-64
2022/03/24 07:17:36;;;;;;;31.43;23.00;;;10.70;99.90;;;;;;5052443;28;20217;-65
2022/03/24 07:20:07;;;;;;;33.40;23.17;;;11.20;99.90;;;;;;5048589;28;20187;-65
2022/03/24 07:22:37;;;;;;;27.17;21.57;;;11.70;99.90;;;;;;5049283;28;20201;-61
2022/03/24 07:25:05;;;;;;;27.27;20.80;;;12.20;99.90;;;;;;5033604;28;20529;-64
2022/03/24 07:27:30;;;;;;;36.17;22.27;;;12.60;99.90;;;;;;5016898;28;20641;-62
2022/03/24 07:29:56;;;;;;;33.60;24.27;;;12.90;99.90;;;;;;5038397;28;20183;-62
2022/03/24 07:32:21;;;;;;;34.33;23.87;;;13.10;99.90;;;;;;5033743;28;20245;-66
2022/03/24 07:34:47;;;;;;;33.40;22.57;;;13.30;99.90;;;;;;5032970;28;20183;-62
2022/03/24 07:37:14;;;;;;;33.03;22.60;;;13.50;99.90;;;;;;5033345;28;20203;-63
2022/03/24 07:39:40;;;;;;;30.03;23.17;;;13.70;99.90;;;;;;5050235;28;20183;-63
2022/03/24 07:42:06;;;;;;;30.23;22.67;;;13.90;99.90;;;;;;5033358;28;20257;-63
2022/03/24 07:44:32;;;;;;;34.37;23.70;;;14.20;99.90;;;;;;5047371;28;20294;-63
2022/03/24 07:46:57;;;;;;;32.50;23.53;;;14.40;99.90;;;;;;5032736;28;20259;-63
2022/03/24 07:49:23;;;;;;;32.47;23.77;;;14.50;99.90;;;;;;5043122;28;20599;-62
2022/03/24 07:51:49;;;;;;;34.77;22.93;;;14.70;99.90;;;;;;5038913;28;20227;-64
2022/03/24 07:54:14;;;;;;;36.20;22.33;;;15.10;99.90;;;;;;5036489;28;20179;-63
2022/03/24 07:56:41;;;;;;;33.33;22.75;;;15.60;99.90;;;;;;5045760;28;20285;-63
2022/03/24 07:59:06;;;;;;;29.02;22.83;;;16.20;99.90;;;;;;5039874;28;20171;-64
2022/03/24 08:01:34;;;;;;;30.15;22.58;;;16.70;99.90;;;;;;5040874;28;20174;-64
2022/03/24 08:04:05;;;;;;;33.30;23.40;;;17.00;99.90;;;;;;5052670;28;20270;-64
2022/03/24 08:06:32;;;;;;;37.42;24.23;;;17.30;99.90;;;;;;5041955;28;20187;-64
2022/03/24 08:08:58;;;;;;;38.77;24.67;;;17.20;99.90;;;;;;5032470;28;20733;-66
2022/03/24 08:11:27;;;;;;;32.15;24.15;;;17.30;99.90;;;;;;5049184;28;20578;-65
2022/03/24 08:13:55;;;;;;;30.95;23.75;;;17.40;99.90;;;;;;5042617;28;20270;-65
2022/03/24 08:16:24;;;;;;;35.93;24.77;;;17.60;99.90;;;;;;5031940;28;20207;-62
2022/03/24 08:18:51;;;;;;;40.53;24.08;;;17.70;99.90;;;;;;5034159;28;20644;-63
2022/03/24 08:21:16;;;;;;;31.98;23.02;;;18.00;99.90;;;;;;5037231;28;20171;-64
2022/03/24 08:23:42;;;;;;;33.95;24.17;;;18.40;99.90;;;;;;5050447;28;20186;-64
2022/03/24 08:26:09;;;;;;;31.45;24.25;;;18.90;99.90;;;;;;5045615;28;20175;-64
2022/03/24 08:28:35;;;;;;;34.60;24.58;;;19.30;99.20;;;;;;5032041;28;20186;-64
2022/03/24 08:31:00;;;;;;;35.58;24.92;;;19.70;98.70;;;;;;5035038;28;20180;-64
2022/03/24 08:33:27;;;;;;;36.58;25.67;;;19.90;95.90;;;;;;5042704;28;20199;-64
2022/03/24 08:35:53;;;;;;;36.25;25.00;;;20.00;96.70;;;;;;5050460;28;20203;-63
2022/03/24 08:38:18;;;;;;;36.13;25.90;;;20.10;96.00;;;;;;5044367;28;20179;-65
2022/03/24 08:40:44;;;;;;;34.60;25.13;;;20.10;96.00;;;;;;5031781;28;20222;-65
2022/03/24 08:43:10;;;;;;;33.70;25.77;;;20.20;95.40;;;;;;5039282;28;20673;-65
2022/03/24 08:45:37;;;;;;;36.20;24.23;;;20.20;94.50;;;;;;5032524;28;20186;-65
2022/03/24 08:48:03;;;;;;;34.80;26.08;;;20.20;94.70;;;;;;5030171;28;20174;-64
2022/03/24 08:50:28;;;;;;;39.47;27.75;;;20.20;94.40;;;;;;5047242;28;20183;-64
2022/03/24 08:52:55;;;;;;;38.88;27.23;;;20.20;94.70;;;;;;5041149;28;20191;-64
2022/03/24 08:55:21;;;;;;;40.58;27.67;;;20.20;93.60;;;;;;5047770;28;20194;-62
2022/03/24 08:57:47;;;;;;;39.03;29.48;;;20.40;94.40;;;;;;5031550;28;20176;-63
2022/03/24 09:00:16;;;;;;;35.28;26.92;;;20.60;94.00;;;;;;5046779;28;20217;-65
2022/03/24 09:02:50;;;;;;;40.95;27.17;;;20.60;93.50;;;;;;5031507;28;20187;-64
2022/03/24 09:05:16;;;;;;;38.13;28.30;;;20.50;92.90;;;;;;5031534;28;20183;-64
2022/03/24 09:07:42;;;;;;;38.88;27.58;;;20.40;93.20;;;;;;5031587;28;20163;-65
2022/03/24 09:10:10;;;;;;;36.92;29.00;;;20.50;92.80;;;;;;5039484;28;20285;-65
2022/03/24 09:12:38;;;;;;;35.17;27.08;;;20.60;93.20;;;;;;5031399;28;20194;-64
2022/03/24 09:15:05;;;;;;;34.20;27.33;;;21.00;92.30;;;;;;5017841;28;20257;-64
2022/03/24 09:17:32;;;;;;;40.40;28.40;;;21.40;93.20;;;;;;5031732;28;20191;-64
2022/03/24 09:19:58;;;;;;;36.45;27.50;;;21.70;93.70;;;;;;5035291;28;20178;-64
2022/03/24 09:22:24;;;;;;;38.25;28.85;;;21.60;91.90;;;;;;5051113;28;20191;-65
2022/03/24 09:24:50;;;;;;;39.85;28.40;;;22.00;92.40;;;;;;5043102;28;20182;-63
2022/03/24 09:27:15;;;;;;;40.05;28.00;;;22.20;93.40;;;;;;5051449;28;20179;-62
2022/03/24 09:29:42;;;;;;;36.45;27.90;;;22.20;91.00;;;;;;5042807;28;20183;-64
2022/03/24 09:32:12;;;;;;;37.72;28.27;;;22.30;90.20;;;;;;5041347;28;20202;-65
2022/03/24 09:34:39;;;;;;;39.10;26.88;;;22.60;89.60;;;;;;5030792;28;20215;-66
2022/03/24 09:37:04;;;;;;;36.72;28.40;;;22.70;90.30;;;;;;5031131;28;20229;-65
2022/03/24 09:39:30;;;;;;;36.22;29.13;;;22.90;91.50;;;;;;5049464;28;20254;-63
2022/03/24 09:41:57;;;;;;;34.95;28.60;;;23.40;90.30;;;;;;5050511;28;20202;-65
2022/03/24 09:44:24;;;;;;;36.88;29.15;;;23.50;84.70;;;;;;5034747;28;20222;-64
2022/03/24 09:46:49;;;;;;;38.28;28.58;;;23.50;85.30;;;;;;5029926;28;20294;-64
2022/03/24 09:49:15;;;;;;;35.20;28.73;;;23.70;86.70;;;;;;5046557;28;20689;-64
2022/03/24 09:51:42;;;;;;;34.85;27.80;;;24.20;87.70;;;;;;5032748;28;20294;-63
2022/03/24 09:54:10;;;;;;;40.55;29.33;;;24.40;85.00;;;;;;5030742;28;20543;-64
2022/03/24 09:56:36;;;;;;;38.47;28.05;;;24.30;81.20;;;;;;5039596;28;20202;-65
2022/03/24 09:59:02;;;;;;;35.92;29.90;;;24.10;82.10;;;;;;5050350;28;20182;-64
2022/03/24 10:01:27;;;;;;;40.15;29.85;;;24.00;77.60;;;;;;5043769;28;20236;-64
2022/03/24 10:04:10;;;;;;;37.88;28.92;;;23.20;80.00;;;;;;5062583;23;20219;-67
2022/03/24 10:06:39;;;;;;;36.58;28.30;;;23.20;83.30;;;;;;5029778;28;20218;-66
2022/03/24 10:09:06;;;;;;;37.03;29.30;;;23.50;81.20;;;;;;5030691;28;20241;-65
2022/03/24 10:11:35;;;;;;;41.17;29.13;;;23.90;82.50;;;;;;5030690;28;20241;-65
2022/03/24 10:14:01;;;;;;;37.83;27.63;;;24.30;81.40;;;;;;5033502;28;20265;-65
2022/03/24 10:16:33;;;;;;;38.28;29.08;;;24.90;81.40;;;;;;5033918;28;20207;-65
2022/03/24 10:19:09;;;;;;;35.92;27.90;;;25.20;80.40;;;;;;5014347;28;20238;-65
2022/03/24 10:21:38;;;;;;;37.00;28.05;;;25.60;74.20;;;;;;5014481;28;20301;-65
2022/03/24 10:24:11;;;;;;;36.63;28.55;;;25.50;68.60;;;;;;5014293;28;20184;-65
2022/03/24 10:26:44;;;;;;;35.30;29.23;;;25.50;68.70;;;;;;5012929;28;20176;-65
2022/03/24 10:29:12;;;;;;;38.53;29.83;;;25.10;75.60;;;;;;5034275;28;20264;-65
2022/03/24 10:31:38;;;;;;;35.60;28.75;;;25.20;64.80;;;;;;5033486;28;20650;-66
2022/03/24 10:34:06;;;;;;;35.30;29.55;;;25.30;60.80;;;;;;5033344;28;20586;-66
2022/03/24 10:36:32;;;;;;;34.42;27.88;;;24.90;59.10;;;;;;5028807;28;20208;-66
2022/03/24 10:39:04;;;;;;;37.80;28.70;;;24.30;57.60;;;;;;5014101;28;20188;-66
2022/03/24 10:41:31;;;;;;;32.35;27.70;;;23.60;58.50;;;;;;5030166;28;20720;-66
2022/03/24 10:44:11;;;;;;;37.33;27.45;;;23.40;59.90;;;;;;5033039;28;20289;-66
2022/03/24 10:46:44;;;;;;;35.65;28.48;;;23.90;60.50;;;;;;5033425;28;20182;-66
2022/03/24 10:49:24;;;;;;;33.22;26.63;;;24.30;58.50;;;;;;5033508;28;20186;-66
2022/03/24 10:51:51;;;;;;;38.25;27.45;;;24.40;62.00;;;;;;5032652;28;20270;-66
2022/03/24 10:54:30;;;;;;;35.03;27.63;;;24.60;61.80;;;;;;5028908;28;20200;-66
2022/03/24 10:56:58;;;;;;;33.53;26.67;;;24.60;56.00;;;;;;5020929;28;20297;-66
2022/03/24 10:59:27;;;;;;;34.22;27.40;;;24.70;62.60;;;;;;5033558;28;20175;-66
2022/03/24 11:01:54;;;;;;;32.58;26.42;;;24.90;63.70;;;;;;5031687;28;20176;-65
2022/03/24 11:04:20;;;;;;;34.67;28.00;;;25.40;60.10;;;;;;5033335;28;20337;-65
2022/03/24 11:06:50;;;;;;;29.15;23.73;;;25.20;56.00;;;;;;5032804;28;20329;-66
2022/03/24 11:09:29;;;;;;;30.35;26.08;;;24.80;54.20;;;;;;5033158;28;20183;-65
2022/03/24 11:12:27;;;;;;;28.65;23.73;;;24.60;53.90;;;;;;5033262;28;20265;-66
2022/03/24 11:14:56;;;;;;;32.75;25.00;;;24.50;53.50;;;;;;5032213;28;20227;-65
2022/03/24 11:17:28;;;;;;;32.30;25.67;;;24.70;55.40;;;;;;5032304;28;20195;-65
2022/03/24 11:20:13;;;;;;;33.63;24.50;;;24.60;53.80;;;;;;5032517;28;20176;-66
2022/03/24 11:22:58;;;;;;;26.60;22.58;;;24.50;54.10;;;;;;5031672;28;20163;-65
2022/03/24 11:25:25;;;;;;;27.77;20.80;;;24.70;53.10;;;;;;5032229;28;20195;-65
2022/03/24 11:27:53;;;;;;;23.50;18.55;;;24.90;50.00;;;;;;5033013;28;20263;-65
2022/03/24 11:30:20;;;;;;;25.27;20.33;;;25.00;50.80;;;;;;5032451;28;20172;-65
2022/03/24 11:32:47;;;;;;;19.80;16.85;;;24.80;46.70;;;;;;5032737;28;20545;-65
2022/03/24 11:35:13;;;;;;;21.50;16.02;;;24.90;50.10;;;;;;5032191;28;20230;-65
2022/03/24 11:37:40;;;;;;;18.25;15.27;;;24.90;46.60;;;;;;5032925;28;20521;-65
2022/03/24 11:40:13;;;;;;;19.75;15.32;;;24.70;45.80;;;;;;5027695;28;20583;-65
2022/03/24 11:43:10;;;;;;;25.70;19.02;;;24.60;46.20;;;;;;5012951;28;20160;-66
2022/03/24 11:45:48;;;;;;;20.40;13.40;;;24.60;46.80;;;;;;5021721;28;20502;-65
2022/03/24 11:48:15;;;;;;;20.77;15.32;;;24.40;46.10;;;;;;5032576;28;20547;-65
2022/03/24 11:50:47;;;;;;;23.55;15.27;;;24.40;44.50;;;;;;5021870;28;20176;-65
2022/03/24 11:53:27;;;;;;;22.92;17.20;;;24.60;46.40;;;;;;5012901;28;20176;-65
2022/03/24 11:55:59;;;;;;;26.48;19.73;;;24.30;43.70;;;;;;5021603;28;20203;-65
2022/03/24 11:58:36;;;;;;;26.75;18.98;;;23.70;47.50;;;;;;5031796;28;20172;-65
2022/03/24 12:01:17;;;;;;;25.95;16.10;;;23.90;46.20;;;;;;5032494;28;20230;-65
2022/03/24 12:03:51;;;;;;;25.70;15.52;;;24.20;46.10;;;;;;5031870;28;20669;-65
2022/03/24 12:06:18;;;;;;;22.45;14.95;;;24.30;44.60;;;;;;5030654;28;20262;-65
2022/03/24 12:08:45;;;;;;;24.20;17.10;;;24.20;45.60;;;;;;5031824;28;20190;-66
2022/03/24 12:11:32;;;;;;;21.70;16.63;;;24.00;42.60;;;;;;5032297;28;20179;-65
2022/03/24 12:14:02;;;;;;;26.10;17.73;;;24.00;51.10;;;;;;5031645;28;20629;-65
2022/03/24 12:16:29;;;;;;;23.80;17.52;;;24.40;44.90;;;;;;5031817;28;20234;-65
2022/03/24 12:18:55;;;;;;;21.13;17.58;;;24.40;44.20;;;;;;5031602;28;20187;-66
2022/03/24 12:21:27;;;;;;;25.75;18.60;;;24.60;43.60;;;;;;5031893;28;20171;-65
2022/03/24 12:24:02;;;;;;;25.27;18.00;;;24.90;44.90;;;;;;5031472;28;20210;-65
2022/03/24 12:26:35;;;;;;;22.80;18.17;;;24.40;44.50;;;;;;5031529;28;20179;-65
2022/03/24 12:29:10;;;;;;;28.48;18.63;;;24.40;44.10;;;;;;5031580;28;20176;-65
2022/03/24 12:31:57;;;;;;;23.52;18.02;;;24.40;44.30;;;;;;5026690;28;20179;-65
2022/03/24 12:34:44;;;;;;;25.38;18.08;;;24.20;40.70;;;;;;5011591;28;20214;-65
2022/03/24 12:37:30;;;;;;;25.05;18.77;;;24.30;43.10;;;;;;5021282;28;20207;-65
2022/03/24 12:40:05;;;;;;;29.20;21.20;;;24.40;41.10;;;;;;5031788;28;20578;-65
2022/03/24 12:42:46;;;;;;;30.40;20.17;;;24.10;41.30;;;;;;5031018;28;20182;-65